sensor_id;sensor_type;location;lat;lon;timestamp;pressure;altitude;pressure_sealevel;temperature
8533;BMP280;4304;53.876;10.662;2023-02-28T00:02:16;103219.44;;;2.97
8533;BMP280;4304;53.876;10.662;2023-02-28T00:04:43;103219.41;;;2.98
8533;BMP280;4304;53.876;10.662;2023-02-28T00:07:08;103217.69;;;2.94
8533;BMP280;4304;53.876;10.662;2023-02-28T00:09:34;103215.97;;;2.95
8533;BMP280;4304;53.876;10.662;2023-02-28T00:11:59;103221.13;;;2.97
8533;BMP280;4304;53.876;10.662;2023-02-28T00:14:24;103223.69;;;2.97
8533;BMP280;4304;53.876;10.662;2023-02-28T00:16:50;103226.25;;;2.96
8533;BMP280;4304;53.876;10.662;2023-02-28T00:19:15;103217.69;;;2.93
8533;BMP280;4304;53.876;10.662;2023-02-28T00:21:40;103227.13;;;2.95
8533;BMP280;4304;53.876;10.662;2023-02-28T00:24:06;103231.41;;;2.96
8533;BMP280;4304;53.876;10.662;2023-02-28T00:26:32;103233.94;;;2.93
8533;BMP280;4304;53.876;10.662;2023-02-28T00:28:57;103230.53;;;2.94
8533;BMP280;4304;53.876;10.662;2023-02-28T00:31:23;103232.22;;;2.88
8533;BMP280;4304;53.876;10.662;2023-02-28T00:33:48;103221.13;;;2.87
8533;BMP280;4304;53.876;10.662;2023-02-28T00:36:13;103209.13;;;2.88
8533;BMP280;4304;53.876;10.662;2023-02-28T00:38:40;103216.81;;;2.88
8533;BMP280;4304;53.876;10.662;2023-02-28T00:41:06;103208.25;;;2.84
8533;BMP280;4304;53.876;10.662;2023-02-28T00:43:36;103218.53;;;2.86
8533;BMP280;4304;53.876;10.662;2023-02-28T00:46:02;103215.97;;;2.83
8533;BMP280;4304;53.876;10.662;2023-02-28T00:48:28;103226.22;;;2.83
8533;BMP280;4304;53.876;10.662;2023-02-28T00:50:53;103223.66;;;2.81
8533;BMP280;4304;53.876;10.662;2023-02-28T00:53:19;103215.94;;;2.80
8533;BMP280;4304;53.876;10.662;2023-02-28T00:55:44;103221.09;;;2.81
8533;BMP280;4304;53.876;10.662;2023-02-28T00:58:10;103225.34;;;2.78
8533;BMP280;4304;53.876;10.662;2023-02-28T01:00:35;103211.66;;;2.73
8533;BMP280;4304;53.876;10.662;2023-02-28T01:03:00;103217.63;;;2.76
8533;BMP280;4304;53.876;10.662;2023-02-28T01:05:27;103205.66;;;2.72
8533;BMP280;4304;53.876;10.662;2023-02-28T01:07:52;103198.81;;;2.76
8533;BMP280;4304;53.876;10.662;2023-02-28T01:10:25;103199.66;;;2.72
8533;BMP280;4304;53.876;10.662;2023-02-28T01:12:53;103209.91;;;2.73
8533;BMP280;4304;53.876;10.662;2023-02-28T01:15:21;103205.66;;;2.71
8533;BMP280;4304;53.876;10.662;2023-02-28T01:17:52;103212.50;;;2.70
8533;BMP280;4304;53.876;10.662;2023-02-28T01:20:26;103230.47;;;2.70
8533;BMP280;4304;53.876;10.662;2023-02-28T01:23:04;103222.75;;;2.72
8533;BMP280;4304;53.876;10.662;2023-02-28T01:25:42;103225.31;;;2.66
8533;BMP280;4304;53.876;10.662;2023-02-28T01:28:17;103209.91;;;2.66
8533;BMP280;4304;53.876;10.662;2023-02-28T01:31:00;103217.63;;;2.67
8533;BMP280;4304;53.876;10.662;2023-02-28T01:33:36;103209.91;;;2.64
8533;BMP280;4304;53.876;10.662;2023-02-28T01:36:20;103203.03;;;2.62
8533;BMP280;4304;53.876;10.662;2023-02-28T01:39:09;103212.44;;;2.55
8533;BMP280;4304;53.876;10.662;2023-02-28T01:41:40;103216.69;;;2.53
8533;BMP280;4304;53.876;10.662;2023-02-28T01:47:18;103215.00;;;2.51
8533;BMP280;4304;53.876;10.662;2023-02-28T01:50:02;103226.97;;;2.49
8533;BMP280;4304;53.876;10.662;2023-02-28T01:52:35;103226.09;;;2.52
8533;BMP280;4304;53.876;10.662;2023-02-28T01:55:12;103216.69;;;2.48
8533;BMP280;4304;53.876;10.662;2023-02-28T01:57:56;103218.38;;;2.50
8533;BMP280;4304;53.876;10.662;2023-02-28T02:00:34;103226.94;;;2.51
8533;BMP280;4304;53.876;10.662;2023-02-28T02:03:13;103221.81;;;2.46
8533;BMP280;4304;53.876;10.662;2023-02-28T02:05:44;103220.06;;;2.42
8533;BMP280;4304;53.876;10.662;2023-02-28T02:08:26;103211.50;;;2.39
8533;BMP280;4304;53.876;10.662;2023-02-28T02:11:22;103209.81;;;2.39
8533;BMP280;4304;53.876;10.662;2023-02-28T02:14:16;103221.75;;;2.34
8533;BMP280;4304;53.876;10.662;2023-02-28T02:17:14;103223.47;;;2.37
8533;BMP280;4304;53.876;10.662;2023-02-28T02:23:10;103220.06;;;2.36
8533;BMP280;4304;53.876;10.662;2023-02-28T02:42:55;103200.25;;;2.12
8533;BMP280;4304;53.876;10.662;2023-02-28T02:45:49;103201.91;;;2.10
8533;BMP280;4304;53.876;10.662;2023-02-28T02:48:24;103203.59;;;2.05
8533;BMP280;4304;53.876;10.662;2023-02-28T02:51:17;103215.53;;;2.00
8533;BMP280;4304;53.876;10.662;2023-02-28T02:56:52;103209.50;;;1.90
8533;BMP280;4304;53.876;10.662;2023-02-28T02:59:22;103207.78;;;1.88
8533;BMP280;4304;53.876;10.662;2023-02-28T03:01:57;103209.44;;;1.83
8533;BMP280;4304;53.876;10.662;2023-02-28T03:04:32;103210.28;;;1.77
8533;BMP280;4304;53.876;10.662;2023-02-28T03:07:17;103212.75;;;1.70
8533;BMP280;4304;53.876;10.662;2023-02-28T03:09:56;103214.44;;;1.65
8533;BMP280;4304;53.876;10.662;2023-02-28T03:12:43;103208.44;;;1.63
8533;BMP280;4304;53.876;10.662;2023-02-28T03:15:32;103217.00;;;1.65
8533;BMP280;4304;53.876;10.662;2023-02-28T03:18:38;103212.72;;;1.61
8533;BMP280;4304;53.876;10.662;2023-02-28T03:21:54;103220.31;;;1.52
8533;BMP280;4304;53.876;10.662;2023-02-28T03:24:34;103221.16;;;1.51
8533;BMP280;4304;53.876;10.662;2023-02-28T03:27:30;103230.53;;;1.48
8533;BMP280;4304;53.876;10.662;2023-02-28T03:30:14;103226.25;;;1.47
8533;BMP280;4304;53.876;10.662;2023-02-28T03:36:08;103233.81;;;1.35
8533;BMP280;4304;53.876;10.662;2023-02-28T03:39:03;103229.47;;;1.25
8533;BMP280;4304;53.876;10.662;2023-02-28T03:41:40;103224.31;;;1.22
8533;BMP280;4304;53.876;10.662;2023-02-28T03:44:36;103216.59;;;1.19
8533;BMP280;4304;53.876;10.662;2023-02-28T03:47:19;103218.22;;;1.11
8533;BMP280;4304;53.876;10.662;2023-02-28T03:56:51;103218.94;;;0.97
8533;BMP280;4304;53.876;10.662;2023-02-28T03:59:34;103223.16;;;0.92
8533;BMP280;4304;53.876;10.662;2023-02-28T04:02:11;103228.22;;;0.87
8533;BMP280;4304;53.876;10.662;2023-02-28T04:04:42;103231.56;;;0.82
8533;BMP280;4304;53.876;10.662;2023-02-28T04:07:42;103226.50;;;0.88
8533;BMP280;4304;53.876;10.662;2023-02-28T04:10:19;103225.63;;;0.86
8533;BMP280;4304;53.876;10.662;2023-02-28T04:13:10;103222.19;;;0.84
8533;BMP280;4304;53.876;10.662;2023-02-28T04:15:38;103231.50;;;0.78
8533;BMP280;4304;53.876;10.662;2023-02-28T04:18:14;103224.63;;;0.72
8533;BMP280;4304;53.876;10.662;2023-02-28T04:20:51;103223.66;;;0.63
8533;BMP280;4304;53.876;10.662;2023-02-28T04:23:19;103231.25;;;0.57
8533;BMP280;4304;53.876;10.662;2023-02-28T04:26:11;103230.31;;;0.50
8533;BMP280;4304;53.876;10.662;2023-02-28T04:28:45;103233.72;;;0.52
8533;BMP280;4304;53.876;10.662;2023-02-28T04:31:26;103237.94;;;0.47
8533;BMP280;4304;53.876;10.662;2023-02-28T04:34:10;103248.00;;;0.36
8533;BMP280;4304;53.876;10.662;2023-02-28T04:36:40;103242.00;;;0.32
8533;BMP280;4304;53.876;10.662;2023-02-28T04:39:08;103235.09;;;0.25
8533;BMP280;4304;53.876;10.662;2023-02-28T04:41:37;103246.06;;;0.18
8533;BMP280;4304;53.876;10.662;2023-02-28T04:44:11;103252.78;;;0.12
8533;BMP280;4304;53.876;10.662;2023-02-28T04:52:31;103242.22;;;-0.10
8533;BMP280;4304;53.876;10.662;2023-02-28T04:55:05;103242.25;;;-0.09
8533;BMP280;4304;53.876;10.662;2023-02-28T04:57:47;103232.84;;;-0.10
8533;BMP280;4304;53.876;10.662;2023-02-28T05:00:43;103236.13;;;-0.18
8533;BMP280;4304;53.876;10.662;2023-02-28T05:03:09;103248.03;;;-0.20
8533;BMP280;4304;53.876;10.662;2023-02-28T05:05:42;103256.53;;;-0.21
8533;BMP280;4304;53.876;10.662;2023-02-28T05:08:16;103246.13;;;-0.32
8533;BMP280;4304;53.876;10.662;2023-02-28T05:11:19;103251.97;;;-0.39
8533;BMP280;4304;53.876;10.662;2023-02-28T05:13:59;103241.66;;;-0.44
8533;BMP280;4304;53.876;10.662;2023-02-28T05:16:30;103239.84;;;-0.51
8533;BMP280;4304;53.876;10.662;2023-02-28T05:19:04;103250.22;;;-0.43
8533;BMP280;4304;53.876;10.662;2023-02-28T05:21:38;103251.84;;;-0.47
8533;BMP280;4304;53.876;10.662;2023-02-28T05:24:22;103249.97;;;-0.56
8533;BMP280;4304;53.876;10.662;2023-02-28T05:26:54;103257.50;;;-0.63
8533;BMP280;4304;53.876;10.662;2023-02-28T05:29:20;103252.22;;;-0.72
8533;BMP280;4304;53.876;10.662;2023-02-28T05:31:45;103252.28;;;-0.69
8533;BMP280;4304;53.876;10.662;2023-02-28T05:34:11;103248.91;;;-0.68
8533;BMP280;4304;53.876;10.662;2023-02-28T05:36:37;103253.19;;;-0.66
8533;BMP280;4304;53.876;10.662;2023-02-28T05:39:05;103260.78;;;-0.70
8533;BMP280;4304;53.876;10.662;2023-02-28T05:41:30;103260.69;;;-0.76
8533;BMP280;4304;53.876;10.662;2023-02-28T05:43:57;103270.09;;;-0.74
8533;BMP280;4304;53.876;10.662;2023-02-28T05:46:22;103264.91;;;-0.78
8533;BMP280;4304;53.876;10.662;2023-02-28T05:48:48;103268.09;;;-0.89
8533;BMP280;4304;53.876;10.662;2023-02-28T05:51:14;103265.44;;;-0.94
8533;BMP280;4304;53.876;10.662;2023-02-28T05:53:39;103274.78;;;-0.94
8533;BMP280;4304;53.876;10.662;2023-02-28T05:56:05;103270.44;;;-1.00
8533;BMP280;4304;53.876;10.662;2023-02-28T05:58:30;103275.44;;;-1.04
8533;BMP280;4304;53.876;10.662;2023-02-28T06:01:00;103273.66;;;-1.08
8533;BMP280;4304;53.876;10.662;2023-02-28T06:03:27;103276.25;;;-1.05
8533;BMP280;4304;53.876;10.662;2023-02-28T06:05:52;103268.72;;;-1.01
8533;BMP280;4304;53.876;10.662;2023-02-28T06:08:18;103261.91;;;-1.00
8533;BMP280;4304;53.876;10.662;2023-02-28T06:10:43;103272.28;;;-0.93
8533;BMP280;4304;53.876;10.662;2023-02-28T06:13:09;103268.84;;;-0.93
8533;BMP280;4304;53.876;10.662;2023-02-28T06:15:34;103279.06;;;-0.92
8533;BMP280;4304;53.876;10.662;2023-02-28T06:17:59;103279.94;;;-0.93
8533;BMP280;4304;53.876;10.662;2023-02-28T06:20:26;103278.16;;;-0.95
8533;BMP280;4304;53.876;10.662;2023-02-28T06:22:55;103287.50;;;-0.97
8533;BMP280;4304;53.876;10.662;2023-02-28T06:25:21;103286.72;;;-0.92
8533;BMP280;4304;53.876;10.662;2023-02-28T06:27:47;103279.38;;;-0.77
8533;BMP280;4304;53.876;10.662;2023-02-28T06:30:13;103292.25;;;-0.71
8533;BMP280;4304;53.876;10.662;2023-02-28T06:32:38;103282.06;;;-0.70
8533;BMP280;4304;53.876;10.662;2023-02-28T06:35:04;103297.38;;;-0.70
8533;BMP280;4304;53.876;10.662;2023-02-28T06:37:31;103288.97;;;-0.64
8533;BMP280;4304;53.876;10.662;2023-02-28T06:39:56;103289.84;;;-0.62
8533;BMP280;4304;53.876;10.662;2023-02-28T06:42:22;103289.00;;;-0.63
8533;BMP280;4304;53.876;10.662;2023-02-28T06:44:54;103297.53;;;-0.61
8533;BMP280;4304;53.876;10.662;2023-02-28T06:47:20;103294.13;;;-0.61
8533;BMP280;4304;53.876;10.662;2023-02-28T06:49:46;103295.00;;;-0.61
8533;BMP280;4304;53.876;10.662;2023-02-28T06:52:11;103293.31;;;-0.60
8533;BMP280;4304;53.876;10.662;2023-02-28T06:54:37;103297.59;;;-0.58
8533;BMP280;4304;53.876;10.662;2023-02-28T06:57:02;103294.25;;;-0.55
8533;BMP280;4304;53.876;10.662;2023-02-28T06:59:28;103284.91;;;-0.55
8533;BMP280;4304;53.876;10.662;2023-02-28T07:01:53;103294.38;;;-0.48
8533;BMP280;4304;53.876;10.662;2023-02-28T07:04:20;103295.22;;;-0.49
8533;BMP280;4304;53.876;10.662;2023-02-28T07:06:45;103301.22;;;-0.47
8533;BMP280;4304;53.876;10.662;2023-02-28T07:09:10;103298.75;;;-0.41
8533;BMP280;4304;53.876;10.662;2023-02-28T07:11:35;103296.38;;;-0.32
8533;BMP280;4304;53.876;10.662;2023-02-28T07:14:01;103302.44;;;-0.27
8533;BMP280;4304;53.876;10.662;2023-02-28T07:16:26;103291.41;;;-0.23
8533;BMP280;4304;53.876;10.662;2023-02-28T07:18:53;103308.84;;;-0.01
8533;BMP280;4304;53.876;10.662;2023-02-28T07:21:18;103312.50;;;0.15
8533;BMP280;4304;53.876;10.662;2023-02-28T07:23:43;103306.97;;;0.43
8533;BMP280;4304;53.876;10.662;2023-02-28T07:26:13;103313.38;;;0.75
8533;BMP280;4304;53.876;10.662;2023-02-28T07:28:40;103309.53;;;1.09
8533;BMP280;4304;53.876;10.662;2023-02-28T07:31:06;103310.88;;;1.53
8533;BMP280;4304;53.876;10.662;2023-02-28T07:33:32;103308.63;;;1.85
8533;BMP280;4304;53.876;10.662;2023-02-28T07:36:03;103323.44;;;2.22
8533;BMP280;4304;53.876;10.662;2023-02-28T07:38:29;103333.09;;;2.54
8533;BMP280;4304;53.876;10.662;2023-02-28T07:40:55;103329.00;;;2.90
8533;BMP280;4304;53.876;10.662;2023-02-28T07:43:20;103344.50;;;3.06
8533;BMP280;4304;53.876;10.662;2023-02-28T07:45:45;103332.59;;;3.41
8533;BMP280;4304;53.876;10.662;2023-02-28T07:48:11;103365.22;;;3.73
8533;BMP280;4304;53.876;10.662;2023-02-28T07:50:36;103361.81;;;3.81
8533;BMP280;4304;53.876;10.662;2023-02-28T07:53:01;103350.63;;;3.62
8533;BMP280;4304;53.876;10.662;2023-02-28T07:55:27;103351.50;;;3.70
8533;BMP280;4304;53.876;10.662;2023-02-28T07:57:52;103350.63;;;3.56
8533;BMP280;4304;53.876;10.662;2023-02-28T08:00:18;103360.97;;;3.80
8533;BMP280;4304;53.876;10.662;2023-02-28T08:02:43;103361.81;;;3.81
8533;BMP280;4304;53.876;10.662;2023-02-28T08:05:08;103364.44;;;4.05
8533;BMP280;4304;53.876;10.662;2023-02-28T08:07:34;103357.59;;;4.16
8533;BMP280;4304;53.876;10.662;2023-02-28T08:09:59;103355.84;;;4.24
8533;BMP280;4304;53.876;10.662;2023-02-28T08:12:25;103373.81;;;4.57
8533;BMP280;4304;53.876;10.662;2023-02-28T08:14:50;103362.69;;;4.35
8533;BMP280;4304;53.876;10.662;2023-02-28T08:17:15;103369.50;;;4.78
8533;BMP280;4304;53.876;10.662;2023-02-28T08:19:41;103357.41;;;5.01
8533;BMP280;4304;53.876;10.662;2023-02-28T08:22:06;103347.94;;;5.06
8533;BMP280;4304;53.876;10.662;2023-02-28T08:24:32;103370.22;;;5.18
8533;BMP280;4304;53.876;10.662;2023-02-28T08:26:58;103392.53;;;5.34
8533;BMP280;4304;53.876;10.662;2023-02-28T08:29:23;103361.66;;;5.13
8533;BMP280;4304;53.876;10.662;2023-02-28T08:31:49;103365.88;;;5.31
8533;BMP280;4304;53.876;10.662;2023-02-28T08:34:15;103367.50;;;5.51
8533;BMP280;4304;53.876;10.662;2023-02-28T08:36:41;103396.56;;;5.84
8533;BMP280;4304;53.876;10.662;2023-02-28T08:39:08;103388.81;;;5.83
8533;BMP280;4304;53.876;10.662;2023-02-28T08:41:34;103429.09;;;6.09
8533;BMP280;4304;53.876;10.662;2023-02-28T08:43:59;103387.06;;;5.88
8533;BMP280;4304;53.876;10.662;2023-02-28T08:46:25;103386.91;;;6.13
8533;BMP280;4304;53.876;10.662;2023-02-28T08:48:54;103383.72;;;5.75
8533;BMP280;4304;53.876;10.662;2023-02-28T08:51:20;103394.72;;;6.04
8533;BMP280;4304;53.876;10.662;2023-02-28T08:53:56;103386.81;;;6.23
8533;BMP280;4304;53.876;10.662;2023-02-28T08:56:22;103409.81;;;6.50
8533;BMP280;4304;53.876;10.662;2023-02-28T08:58:49;103387.53;;;6.41
8533;BMP280;4304;53.876;10.662;2023-02-28T09:01:17;103393.50;;;6.48
8533;BMP280;4304;53.876;10.662;2023-02-28T09:03:43;103386.38;;;6.74
8533;BMP280;4304;53.876;10.662;2023-02-28T09:06:10;103410.16;;;7.04
8533;BMP280;4304;53.876;10.662;2023-02-28T09:08:36;103407.34;;;7.23
8533;BMP280;4304;53.876;10.662;2023-02-28T09:11:01;103414.50;;;7.00
8533;BMP280;4304;53.876;10.662;2023-02-28T09:13:27;103407.66;;;6.96
8533;BMP280;4304;53.876;10.662;2023-02-28T09:15:53;103438.31;;;7.29
8533;BMP280;4304;53.876;10.662;2023-02-28T09:18:18;103397.63;;;6.67
8533;BMP280;4304;53.876;10.662;2023-02-28T09:20:44;103391.19;;;7.05
8533;BMP280;4304;53.876;10.662;2023-02-28T09:23:11;103442.53;;;7.39
8533;BMP280;4304;53.876;10.662;2023-02-28T09:25:37;103449.31;;;7.46
8533;BMP280;4304;53.876;10.662;2023-02-28T09:28:03;103451.16;;;7.38
8533;BMP280;4304;53.876;10.662;2023-02-28T09:30:29;103420.94;;;7.40
8533;BMP280;4304;53.876;10.662;2023-02-28T09:32:54;103413.28;;;7.32
8533;BMP280;4304;53.876;10.662;2023-02-28T09:35:24;103464.75;;;7.53
8533;BMP280;4304;53.876;10.662;2023-02-28T09:37:51;103427.53;;;7.63
8533;BMP280;4304;53.876;10.662;2023-02-28T09:40:22;103407.38;;;7.20
8533;BMP280;4304;53.876;10.662;2023-02-28T09:42:51;103400.72;;;7.00
8533;BMP280;4304;53.876;10.662;2023-02-28T09:45:35;103427.03;;;7.34
8533;BMP280;4304;53.876;10.662;2023-02-28T09:48:04;103444.75;;;7.67
8533;BMP280;4304;53.876;10.662;2023-02-28T09:50:41;103466.63;;;7.44
8533;BMP280;4304;53.876;10.662;2023-02-28T09:53:21;103416.22;;;7.71
8533;BMP280;4304;53.876;10.662;2023-02-28T09:55:55;103436.72;;;7.86
8533;BMP280;4304;53.876;10.662;2023-02-28T09:58:23;103453.66;;;8.11
8533;BMP280;4304;53.876;10.662;2023-02-28T10:01:18;103441.28;;;8.29
8533;BMP280;4304;53.876;10.662;2023-02-28T10:03:54;103443.06;;;8.26
8533;BMP280;4304;53.876;10.662;2023-02-28T10:06:23;103436.34;;;8.65
8533;BMP280;4304;53.876;10.662;2023-02-28T10:09:09;103476.50;;;8.41
8533;BMP280;4304;53.876;10.662;2023-02-28T10:11:39;103500.63;;;8.46
8533;BMP280;4304;53.876;10.662;2023-02-28T10:14:12;103511.81;;;9.00
8533;BMP280;4304;53.876;10.662;2023-02-28T10:16:48;103480.38;;;8.68
8533;BMP280;4304;53.876;10.662;2023-02-28T10:19:20;103453.53;;;8.71
8533;BMP280;4304;53.876;10.662;2023-02-28T10:21:56;103446.41;;;8.83
8533;BMP280;4304;53.876;10.662;2023-02-28T10:29:43;103503.41;;;8.86
8533;BMP280;4304;53.876;10.662;2023-02-28T10:32:11;103517.69;;;9.09
8533;BMP280;4304;53.876;10.662;2023-02-28T10:34:39;103474.53;;;9.04
8533;BMP280;4304;53.876;10.662;2023-02-28T10:37:05;103461.25;;;8.74
8533;BMP280;4304;53.876;10.662;2023-02-28T10:39:45;103476.22;;;8.58
8533;BMP280;4304;53.876;10.662;2023-02-28T10:42:23;103479.63;;;9.10
8533;BMP280;4304;53.876;10.662;2023-02-28T10:45:05;103486.72;;;8.99
8533;BMP280;4304;53.876;10.662;2023-02-28T10:47:33;103468.56;;;9.00
8533;BMP280;4304;53.876;10.662;2023-02-28T10:49:59;103453.56;;;9.16
8533;BMP280;4304;53.876;10.662;2023-02-28T10:52:35;103506.09;;;9.28
8533;BMP280;4304;53.876;10.662;2023-02-28T10:55:23;103497.19;;;8.96
8533;BMP280;4304;53.876;10.662;2023-02-28T10:57:51;103454.06;;;9.34
8533;BMP280;4304;53.876;10.662;2023-02-28T11:00:23;103513.78;;;9.34
8533;BMP280;4304;53.876;10.662;2023-02-28T11:02:50;103526.91;;;9.25
8533;BMP280;4304;53.876;10.662;2023-02-28T11:05:32;103523.16;;;9.41
8533;BMP280;4304;53.876;10.662;2023-02-28T11:08:26;103486.47;;;9.14
8533;BMP280;4304;53.876;10.662;2023-02-28T11:10:57;103513.06;;;8.77
8533;BMP280;4304;53.876;10.662;2023-02-28T11:13:33;103493.47;;;9.09
8533;BMP280;4304;53.876;10.662;2023-02-28T11:16:02;103503.00;;;9.53
8533;BMP280;4304;53.876;10.662;2023-02-28T11:18:52;103541.69;;;8.69
8533;BMP280;4304;53.876;10.662;2023-02-28T11:21:30;103522.97;;;9.03
8533;BMP280;4304;53.876;10.662;2023-02-28T11:24:04;103537.34;;;8.71
8533;BMP280;4304;53.876;10.662;2023-02-28T11:26:40;103533.97;;;8.66
8533;BMP280;4304;53.876;10.662;2023-02-28T11:29:25;103502.44;;;8.39
8533;BMP280;4304;53.876;10.662;2023-02-28T11:32:12;103482.81;;;8.76
8533;BMP280;4304;53.876;10.662;2023-02-28T11:34:38;103491.00;;;8.52
8533;BMP280;4304;53.876;10.662;2023-02-28T11:37:09;103521.91;;;8.04
8533;BMP280;4304;53.876;10.662;2023-02-28T11:39:35;103526.53;;;7.81
8533;BMP280;4304;53.876;10.662;2023-02-28T11:50:42;103441.81;;;7.91
8533;BMP280;4304;53.876;10.662;2023-02-28T11:53:14;103448.75;;;7.89
8533;BMP280;4304;53.876;10.662;2023-02-28T11:58:33;103436.59;;;7.94
8533;BMP280;4304;53.876;10.662;2023-02-28T12:06:43;103438.16;;;7.42
8533;BMP280;4304;53.876;10.662;2023-02-28T12:15:13;103424.19;;;7.55
8533;BMP280;4304;53.876;10.662;2023-02-28T12:20:51;103424.41;;;7.40
8533;BMP280;4304;53.876;10.662;2023-02-28T12:26:18;103388.19;;;7.39
8533;BMP280;4304;53.876;10.662;2023-02-28T12:28:51;103378.63;;;7.45
8533;BMP280;4304;53.876;10.662;2023-02-28T12:31:23;103372.78;;;7.28
8533;BMP280;4304;53.876;10.662;2023-02-28T12:33:54;103339.03;;;6.69
8533;BMP280;4304;53.876;10.662;2023-02-28T12:36:22;103340.66;;;6.77
8533;BMP280;4304;53.876;10.662;2023-02-28T12:39:00;103346.50;;;6.94
8533;BMP280;4304;53.876;10.662;2023-02-28T12:41:45;103337.69;;;7.08
8533;BMP280;4304;53.876;10.662;2023-02-28T12:44:15;103325.63;;;7.09
8533;BMP280;4304;53.876;10.662;2023-02-28T12:46:47;103323.88;;;7.11
8533;BMP280;4304;53.876;10.662;2023-02-28T12:51:51;103356.66;;;7.09
8533;BMP280;4304;53.876;10.662;2023-02-28T12:54:48;103335.84;;;7.19
8533;BMP280;4304;53.876;10.662;2023-02-28T12:57:32;103365.03;;;7.28
8533;BMP280;4304;53.876;10.662;2023-02-28T13:00:13;103361.63;;;7.25
8533;BMP280;4304;53.876;10.662;2023-02-28T13:03:02;103354.81;;;7.18
8533;BMP280;4304;53.876;10.662;2023-02-28T13:11:25;103332.91;;;6.79
8533;BMP280;4304;53.876;10.662;2023-02-28T13:14:01;103330.97;;;6.94
8533;BMP280;4304;53.876;10.662;2023-02-28T13:16:27;103324.72;;;7.13
8533;BMP280;4304;53.876;10.662;2023-02-28T13:19:08;103313.59;;;7.06
8533;BMP280;4304;53.876;10.662;2023-02-28T13:21:43;103310.91;;;7.12
8533;BMP280;4304;53.876;10.662;2023-02-28T13:24:09;103320.38;;;7.16
8533;BMP280;4304;53.876;10.662;2023-02-28T13:29:01;103286.94;;;7.03
8533;BMP280;4304;53.876;10.662;2023-02-28T13:31:29;103298.97;;;7.04
8533;BMP280;4304;53.876;10.662;2023-02-28T13:36:26;103360.03;;;7.15
8533;BMP280;4304;53.876;10.662;2023-02-28T13:39:03;103319.75;;;6.96
8533;BMP280;4304;53.876;10.662;2023-02-28T13:41:48;103304.09;;;7.08
8533;BMP280;4304;53.876;10.662;2023-02-28T13:44:20;103306.59;;;7.14
8533;BMP280;4304;53.876;10.662;2023-02-28T13:51:48;103320.59;;;6.98
8533;BMP280;4304;53.876;10.662;2023-02-28T14:05:27;103309.59;;;6.83
8533;BMP280;4304;53.876;10.662;2023-02-28T14:07:57;103284.03;;;6.56
8533;BMP280;4304;53.876;10.662;2023-02-28T14:10:39;103284.03;;;6.56
8533;BMP280;4304;53.876;10.662;2023-02-28T14:15:57;103295.06;;;6.72
8533;BMP280;4304;53.876;10.662;2023-02-28T14:18:29;103259.69;;;6.77
8533;BMP280;4304;53.876;10.662;2023-02-28T14:21:13;103256.25;;;6.73
8533;BMP280;4304;53.876;10.662;2023-02-28T14:32:10;103273.41;;;6.81
8533;BMP280;4304;53.876;10.662;2023-02-28T14:34:42;103258.72;;;6.85
8533;BMP280;4304;53.876;10.662;2023-02-28T14:37:14;103254.38;;;6.88
8533;BMP280;4304;53.876;10.662;2023-02-28T14:39:43;103244.06;;;6.85
8533;BMP280;4304;53.876;10.662;2023-02-28T14:42:33;103238.09;;;6.80
8533;BMP280;4304;53.876;10.662;2023-02-28T14:44:59;103234.88;;;6.64
8533;BMP280;4304;53.876;10.662;2023-02-28T14:47:28;103227.75;;;6.80
8533;BMP280;4304;53.876;10.662;2023-02-28T14:49:55;103236.34;;;6.82
8533;BMP280;4304;53.876;10.662;2023-02-28T14:52:21;103235.34;;;6.91
8533;BMP280;4304;53.876;10.662;2023-02-28T14:54:55;103234.69;;;6.79
8533;BMP280;4304;53.876;10.662;2023-02-28T14:57:27;103230.34;;;6.80
8533;BMP280;4304;53.876;10.662;2023-02-28T15:00:13;103202.06;;;6.69
8533;BMP280;4304;53.876;10.662;2023-02-28T15:02:40;103209.81;;;6.69
8533;BMP280;4304;53.876;10.662;2023-02-28T15:07:47;103216.78;;;6.62
8533;BMP280;4304;53.876;10.662;2023-02-28T15:12:51;103203.91;;;6.59
8533;BMP280;4304;53.876;10.662;2023-02-28T15:15:17;103197.09;;;6.55
8533;BMP280;4304;53.876;10.662;2023-02-28T15:17:51;103205.53;;;6.65
8533;BMP280;4304;53.876;10.662;2023-02-28T15:20:20;103199.47;;;6.72
8533;BMP280;4304;53.876;10.662;2023-02-28T15:22:46;103212.31;;;6.73
8533;BMP280;4304;53.876;10.662;2023-02-28T15:25:15;103198.59;;;6.68
8533;BMP280;4304;53.876;10.662;2023-02-28T15:27:46;103202.13;;;6.63
8533;BMP280;4304;53.876;10.662;2023-02-28T15:30:20;103196.19;;;6.56
8533;BMP280;4304;53.876;10.662;2023-02-28T15:33:03;103197.00;;;6.60
8533;BMP280;4304;53.876;10.662;2023-02-28T15:35:31;103198.78;;;6.55
8533;BMP280;4304;53.876;10.662;2023-02-28T15:38:01;103182.38;;;6.59
8533;BMP280;4304;53.876;10.662;2023-02-28T15:43:15;103192.03;;;6.45
8533;BMP280;4304;53.876;10.662;2023-02-28T15:45:55;103190.31;;;6.47
8533;BMP280;4304;53.876;10.662;2023-02-28T15:48:27;103195.38;;;6.51
8533;BMP280;4304;53.876;10.662;2023-02-28T15:51:02;103195.41;;;6.50
8533;BMP280;4304;53.876;10.662;2023-02-28T15:53:34;103192.00;;;6.48
8533;BMP280;4304;53.876;10.662;2023-02-28T15:56:06;103209.31;;;6.40
8533;BMP280;4304;53.876;10.662;2023-02-28T15:58:37;103207.69;;;6.32
8533;BMP280;4304;53.876;10.662;2023-02-28T16:03:52;103182.03;;;6.17
8533;BMP280;4304;53.876;10.662;2023-02-28T16:06:42;103209.63;;;6.12
8533;BMP280;4304;53.876;10.662;2023-02-28T16:09:11;103227.72;;;6.09
8533;BMP280;4304;53.876;10.662;2023-02-28T16:11:41;103229.44;;;6.10
8533;BMP280;4304;53.876;10.662;2023-02-28T16:14:12;103216.56;;;6.07
8533;BMP280;4304;53.876;10.662;2023-02-28T16:16:43;103218.22;;;6.11
8533;BMP280;4304;53.876;10.662;2023-02-28T16:19:09;103215.72;;;6.06
8533;BMP280;4304;53.876;10.662;2023-02-28T16:21:34;103208.03;;;5.97
8533;BMP280;4304;53.876;10.662;2023-02-28T16:23:59;103199.56;;;5.87
8533;BMP280;4304;53.876;10.662;2023-02-28T16:26:25;103215.91;;;5.84
8533;BMP280;4304;53.876;10.662;2023-02-28T16:28:52;103225.41;;;5.84
8533;BMP280;4304;53.876;10.662;2023-02-28T16:31:18;103218.53;;;5.80
8533;BMP280;4304;53.876;10.662;2023-02-28T16:33:44;103213.41;;;5.72
8533;BMP280;4304;53.876;10.662;2023-02-28T16:36:15;103198.91;;;5.59
8533;BMP280;4304;53.876;10.662;2023-02-28T16:38:41;103227.28;;;5.58
8533;BMP280;4304;53.876;10.662;2023-02-28T16:41:06;103216.16;;;5.54
8533;BMP280;4304;53.876;10.662;2023-02-28T16:43:31;103247.91;;;5.59
8533;BMP280;4304;53.876;10.662;2023-02-28T16:45:58;103241.06;;;5.57
8533;BMP280;4304;53.876;10.662;2023-02-28T16:48:23;103241.97;;;5.50
8533;BMP280;4304;53.876;10.662;2023-02-28T16:50:50;103245.47;;;5.43
8533;BMP280;4304;53.876;10.662;2023-02-28T16:53:15;103253.19;;;5.45
8533;BMP280;4304;53.876;10.662;2023-02-28T16:55:41;103239.47;;;5.41